Helena, MT

12:42 PM MST on December 04, 2016 (GMT -0700)
Helena Regional | | Change Station
Active Advisory: Winter Weather Advisory Active Notice: Local Storm Report

Elev 3865 ft 46.60 °N, 111.99 °W | Updated 49 minutes ago

Overcast
Overcast
39 °F
Feels Like 37 °F
N
4
Wind Variable Wind from WSW

Today
High -- | Low -- °F
--% Chance of Precip.
Yesterday
High -- | Low -- °F
Precip. -- in
Pressure 29.72 in
Visibility 10.0 miles
Clouds Mostly Cloudy 4000 ft
Overcast 5000 ft
Windchill 37 °F
Dew Point 23 °F
Humidity 53%
Rainfall 0.00 in
Snow Depth Not available.
7:55 AM 4:41 PM
Waxing Crescent, 25% visible
METAR KHLN 041853Z 24003KT 10SM BKN040 OVC050 04/M05 A2962 RMK AO2 SLP064 T00391050
Pressure 29.72 in
Visibility 10.0 miles
Clouds Mostly Cloudy 4000 ft
Overcast 5000 ft
Windchill 37 °F
Dew Point 23 °F
Humidity 53%
Rainfall 0.00 in
Snow Depth Not available.
7:55 AM 4:41 PM
Waxing Crescent, 25% visible
METAR KHLN 041853Z 24003KT 10SM BKN040 OVC050 04/M05 A2962 RMK AO2 SLP064 T00391050

10-Day Weather Forecast

Almanac

Astronomy

Dec. 04, 2016 Rise Set
Actual Time
Civil Twilight
Nautical Twilight
Astronomical Twilight
Moon
Length of Visible Light
Length of Day
Tomorrow will be .
, % of the Moon is Illuminated

Today's Extremes

State Highs State Lows

Community

WunderPhotos

Upload Photos

1,955,652 photos uploaded!

WunderBlog® & News

Nearby

Air Quality

  Air Quality AQ Index Pollutant
Not available.

Snow Depth

Station Depth Elevation

Earthquake Activity

City Distance Mag. Time & Date
Minimum magnitude displayed is 2.5.

Coastal Water Temperatures

Place Temperature

Stations

Nearby Weather Stations

Station Location Temp. Windchill Dew Point Humidity Wind Precip. Elev Updated Type
                   

Watches & Warnings

Winter Weather Advisory
Issued: 10:18 AM MST Dec. 4, 2016 – National Weather Service

... Winter Weather Advisory remains in effect until 5 PM MST
Monday...

* locations... Boulder... Boulder Hill... Elk Park Pass... Homestake
pass... Whitehall... Flesher Pass... Helena... Lincoln... MacDonald
Pass... Rogers Pass.

* Snow accumulations... 1 to 2 inches of snow in the valleys... and
3 to 6 inches in the mountains.

* Timing... snow is underway at higher elevations. Snow will
gradually reach the valley floors later today.

* Impacts... snow will create hazardous driving conditions at times
through Monday... especially over mountain passes where blowing
and drifting snow is possible. Those with backcountry interests
should also prepare for winter conditions.

* Winds... west 15 to 25 mph with gusts up to 40 mph.

Precautionary/preparedness actions...

A Winter Weather Advisory for snow and blowing snow means that
visibilities will be limited due to a combination of falling and
blowing snow. Use caution when traveling... especially in open
areas.

For specific Road and travel conditions in Montana... dial 5 1 1.